Weather at Henstridge Airfield

Public forecast

Using degrees Celsius for public forecast. Weather courtesy of forecast.io.

Closest aviation weather report (METAR) to Henstridge Airfield

Closest report is RNAS Yeovilton, 10.7 nm (19.9 km) W. Retrieved 2021/06/22 15:50 UTC (31 minutes ago):

EGDY 221550Z 02013KT 9999 FEW045 SCT050 17/05 Q1021 NOSIG RMK BLU BLU

Closest aviation forecast (TAF) to Henstridge Airfield

Forecast is more than 12 hours old.

Closest forecast is RNAS Yeovilton, 10.7 nm (19.9 km) W. Retrieved 2020/10/05 06:30 UTC (9 months ago):

TAF TAF EGDY 051025Z 0506/0518 CNL